createdAt,value
2022-09-28T00:01:44.827Z,11.33
2022-09-28T00:03:51.663Z,11.33
2022-09-28T00:06:02.589Z,11.31
2022-09-28T00:08:07.372Z,11.30
2022-09-28T00:10:12.543Z,11.30
2022-09-28T00:12:17.625Z,11.30
2022-09-28T00:14:22.607Z,11.29
2022-09-28T00:16:29.698Z,11.28
2022-09-28T00:18:35.063Z,11.27
2022-09-28T00:20:39.766Z,11.26
2022-09-28T00:22:44.620Z,11.25
2022-09-28T00:24:49.329Z,11.26
2022-09-28T00:26:55.663Z,11.26
2022-09-28T00:29:01.969Z,11.24
2022-09-28T00:31:07.020Z,11.25
2022-09-28T00:33:12.100Z,11.23
2022-09-28T00:35:16.976Z,11.21
2022-09-28T00:37:21.923Z,11.23
2022-09-28T00:39:27.145Z,11.24
2022-09-28T00:41:32.094Z,11.25
2022-09-28T00:43:36.946Z,11.22
2022-09-28T00:45:41.793Z,11.22
2022-09-28T00:47:50.163Z,11.21
2022-09-28T00:50:01.457Z,11.20
2022-09-28T00:52:10.902Z,11.23
2022-09-28T00:54:17.629Z,11.24
2022-09-28T00:56:25.754Z,11.24
2022-09-28T00:58:33.588Z,11.24
2022-09-28T01:00:39.213Z,11.23
2022-09-28T01:02:45.046Z,11.24
2022-09-28T01:04:50.850Z,11.24
2022-09-28T01:06:57.159Z,11.23
2022-09-28T01:09:04.843Z,11.23
2022-09-28T01:11:09.578Z,11.24
2022-09-28T01:13:15.616Z,11.23
2022-09-28T01:15:22.248Z,11.22
2022-09-28T01:17:31.432Z,11.22
2022-09-28T01:20:07.405Z,11.21
2022-09-28T01:22:27.235Z,11.22
2022-09-28T01:24:42.671Z,11.23
2022-09-28T01:27:15.902Z,11.26
2022-09-28T01:29:32.054Z,11.30
2022-09-28T01:31:41.796Z,11.32
2022-09-28T01:33:51.383Z,11.35
2022-09-28T01:36:02.232Z,11.37
2022-09-28T01:38:13.446Z,11.41
2022-09-28T01:40:19.760Z,11.44
2022-09-28T01:42:28.468Z,11.46
2022-09-28T01:44:37.082Z,11.47
2022-09-28T01:46:46.649Z,11.47
2022-09-28T01:48:57.867Z,11.47
2022-09-28T01:51:08.197Z,11.46
2022-09-28T01:53:19.537Z,11.46
2022-09-28T01:55:31.705Z,11.45
2022-09-28T01:57:42.448Z,11.43
2022-09-28T01:59:55.623Z,11.40
2022-09-28T02:02:04.661Z,11.39
2022-09-28T02:04:14.984Z,11.37
2022-09-28T02:06:28.601Z,11.36
2022-09-28T02:08:37.637Z,11.34
2022-09-28T02:10:48.377Z,11.35
2022-09-28T02:12:57.143Z,11.36
2022-09-28T02:15:11.757Z,11.36
2022-09-28T02:17:16.886Z,11.34
2022-09-28T02:19:27.513Z,11.32
2022-09-28T02:21:37.727Z,11.31
2022-09-28T02:23:55.663Z,11.29
2022-09-28T02:26:05.116Z,11.31
2022-09-28T02:28:12.614Z,11.32
2022-09-28T02:30:17.464Z,11.31
2022-09-28T02:32:23.615Z,11.32
2022-09-28T02:34:28.405Z,11.33
2022-09-28T02:36:34.111Z,11.37
2022-09-28T02:38:39.633Z,11.41
2022-09-28T02:40:49.719Z,11.45
2022-09-28T02:43:03.744Z,11.50
2022-09-28T02:45:22.530Z,11.55
2022-09-28T02:47:38.370Z,11.59
2022-09-28T02:49:50.341Z,11.64
2022-09-28T02:52:21.979Z,11.66
2022-09-28T02:54:47.433Z,11.67
2022-09-28T02:57:18.397Z,11.68
2022-09-28T02:59:40.138Z,11.71
2022-09-28T03:01:57.268Z,11.71
2022-09-28T03:04:12.201Z,11.64
2022-09-28T03:06:24.102Z,11.56
2022-09-28T03:08:33.351Z,11.49
2022-09-28T03:10:43.350Z,11.46
2022-09-28T03:12:50.412Z,11.47
2022-09-28T03:15:11.075Z,11.45
2022-09-28T03:17:16.082Z,11.42
2022-09-28T03:19:24.858Z,11.42
2022-09-28T03:21:29.547Z,11.42
2022-09-28T03:23:34.312Z,11.41
2022-09-28T03:25:39.394Z,11.41
2022-09-28T03:27:44.163Z,11.37
2022-09-28T03:29:49.246Z,11.32
2022-09-28T03:31:53.952Z,11.27
2022-09-28T03:33:59.117Z,11.25
2022-09-28T03:36:04.292Z,11.21
2022-09-28T03:38:09.281Z,11.22
2022-09-28T03:40:15.495Z,11.23
2022-09-28T03:42:20.573Z,11.24
2022-09-28T03:44:26.721Z,11.24
2022-09-28T03:46:31.383Z,11.26
2022-09-28T03:48:41.911Z,11.24
2022-09-28T03:50:47.662Z,11.23
2022-09-28T03:52:52.359Z,11.24
2022-09-28T03:54:57.204Z,11.26
2022-09-28T03:57:01.921Z,11.33
2022-09-28T03:59:06.925Z,11.38
2022-09-28T04:01:16.985Z,11.43
2022-09-28T04:03:22.849Z,11.48
2022-09-28T04:05:27.586Z,11.54
2022-09-28T04:07:32.257Z,11.60
2022-09-28T04:09:36.902Z,11.65
2022-09-28T04:12:02.400Z,11.66
2022-09-28T04:14:06.988Z,11.67
2022-09-28T04:16:12.597Z,11.64
2022-09-28T04:18:20.839Z,11.61
2022-09-28T04:20:35.469Z,11.58
2022-09-28T04:22:44.232Z,11.53
2022-09-28T04:24:48.910Z,11.51
2022-09-28T04:26:53.615Z,11.50
2022-09-28T04:29:01.574Z,11.48
2022-09-28T04:31:13.180Z,11.45
2022-09-28T04:33:18.001Z,11.43
2022-09-28T04:35:22.813Z,11.42
2022-09-28T04:37:27.858Z,11.43
2022-09-28T04:39:35.460Z,11.44
2022-09-28T04:41:40.536Z,11.44
2022-09-28T04:43:46.347Z,11.43
2022-09-28T04:45:53.021Z,11.39
2022-09-28T04:47:58.925Z,11.32
2022-09-28T04:50:22.416Z,11.26
2022-09-28T04:53:05.705Z,11.17
2022-09-28T04:55:13.896Z,11.16
2022-09-28T04:57:18.630Z,11.13
2022-09-28T04:59:24.642Z,11.14
2022-09-28T05:01:29.461Z,11.16
2022-09-28T05:03:37.787Z,11.15
2022-09-28T05:05:53.605Z,11.02
2022-09-28T05:08:17.111Z,10.96
2022-09-28T05:10:22.311Z,10.95
2022-09-28T05:12:30.200Z,10.91
2022-09-28T05:14:34.971Z,10.90
2022-09-28T05:16:41.791Z,10.90
2022-09-28T05:19:05.152Z,10.84
2022-09-28T05:21:13.555Z,10.81
2022-09-28T05:23:18.739Z,10.79
2022-09-28T05:25:23.840Z,10.80
2022-09-28T05:27:40.569Z,10.83
2022-09-28T05:29:59.775Z,10.84
2022-09-28T05:32:07.289Z,10.86
2022-09-28T05:34:41.258Z,10.91
2022-09-28T05:36:50.715Z,10.99
2022-09-28T05:38:55.683Z,11.02
2022-09-28T05:41:05.681Z,11.03
2022-09-28T05:43:11.251Z,11.05
2022-09-28T05:45:16.237Z,11.07
2022-09-28T05:47:22.747Z,11.05
2022-09-28T05:49:27.806Z,11.03
2022-09-28T05:51:32.464Z,10.98
2022-09-28T05:53:37.213Z,10.96
2022-09-28T05:55:42.618Z,10.96
2022-09-28T05:57:47.300Z,10.94
2022-09-28T05:59:52.090Z,10.89
2022-09-28T06:01:56.822Z,10.89
2022-09-28T06:04:01.730Z,10.93
2022-09-28T06:06:06.639Z,10.96
2022-09-28T06:08:11.921Z,10.95
2022-09-28T06:10:21.086Z,10.95
2022-09-28T06:12:26.178Z,10.96
2022-09-28T06:14:37.332Z,11.00
2022-09-28T06:16:43.930Z,11.00
2022-09-28T06:18:49.857Z,11.00
2022-09-28T06:21:13.948Z,11.00
2022-09-28T06:23:21.889Z,11.00
2022-09-28T06:25:26.662Z,11.01
2022-09-28T06:27:31.367Z,11.01
2022-09-28T06:29:35.977Z,11.00
2022-09-28T06:31:40.732Z,11.00
2022-09-28T06:33:48.193Z,11.01
2022-09-28T06:35:53.042Z,11.06
2022-09-28T06:37:58.585Z,11.10
2022-09-28T06:40:03.592Z,11.16
2022-09-28T06:42:08.575Z,11.21
2022-09-28T06:44:36.357Z,11.24
2022-09-28T06:47:13.417Z,11.34
2022-09-28T06:49:41.314Z,11.36
2022-09-28T06:52:01.336Z,11.38
2022-09-28T06:54:28.997Z,11.38
2022-09-28T06:56:46.394Z,11.46
2022-09-28T06:58:51.105Z,11.54
2022-09-28T07:00:58.479Z,11.64
2022-09-28T07:03:05.924Z,11.73
2022-09-28T07:05:25.611Z,11.81
2022-09-28T07:07:50.466Z,11.92
2022-09-28T07:10:11.734Z,11.99
2022-09-28T07:12:36.466Z,12.05
2022-09-28T07:15:00.224Z,12.13
2022-09-28T07:17:13.560Z,12.17
2022-09-28T07:19:19.662Z,12.22
2022-09-28T07:21:29.572Z,12.28
2022-09-28T07:23:50.327Z,12.32
2022-09-28T07:26:20.620Z,12.38
2022-09-28T07:28:32.661Z,12.45
2022-09-28T07:30:52.802Z,12.53
2022-09-28T07:33:18.177Z,12.62
2022-09-28T07:35:31.919Z,12.66
2022-09-28T07:37:37.808Z,12.68
2022-09-28T07:39:42.548Z,12.70
2022-09-28T07:41:47.285Z,12.74
2022-09-28T07:43:53.188Z,12.80
2022-09-28T07:45:57.915Z,12.84
2022-09-28T07:48:03.499Z,12.88
2022-09-28T07:50:26.925Z,12.95
2022-09-28T07:52:51.909Z,13.02
2022-09-28T07:55:07.075Z,13.10
2022-09-28T07:57:33.586Z,13.18
2022-09-28T07:59:51.276Z,13.24
2022-09-28T08:02:15.180Z,13.29
2022-09-28T08:04:20.519Z,13.35
2022-09-28T08:06:25.308Z,13.42
2022-09-28T08:08:30.411Z,13.49
2022-09-28T08:10:36.129Z,13.58
2022-09-28T08:13:06.392Z,13.71
2022-09-28T08:15:20.839Z,13.83
2022-09-28T08:17:32.422Z,13.89
2022-09-28T08:19:38.657Z,13.94
2022-09-28T08:21:43.602Z,13.98
2022-09-28T08:23:48.708Z,14.04
2022-09-28T08:25:53.993Z,14.13
2022-09-28T08:27:59.681Z,14.20
2022-09-28T08:30:06.567Z,14.27
2022-09-28T08:32:17.895Z,14.33
2022-09-28T08:34:51.815Z,14.37
2022-09-28T08:37:19.337Z,14.45
2022-09-28T08:39:42.705Z,14.44
2022-09-28T08:42:14.780Z,14.28
2022-09-28T08:44:45.737Z,14.10
2022-09-28T08:47:29.630Z,14.01
2022-09-28T08:52:17.584Z,14.08
2022-09-28T08:54:53.931Z,14.02
2022-09-28T08:57:16.599Z,13.95
2022-09-28T08:59:25.309Z,13.89
2022-09-28T09:01:43.016Z,13.98
2022-09-28T09:03:50.864Z,14.11
2022-09-28T09:06:24.277Z,14.27
2022-09-28T09:08:45.685Z,14.41
2022-09-28T09:10:53.579Z,14.54
2022-09-28T09:13:15.166Z,14.69
2022-09-28T09:15:40.387Z,14.82
2022-09-28T09:18:08.852Z,14.95
2022-09-28T09:20:47.748Z,15.10
2022-09-28T09:23:05.977Z,15.21
2022-09-28T09:25:20.430Z,15.29
2022-09-28T09:27:41.569Z,15.35
2022-09-28T09:30:02.772Z,15.40
2022-09-28T09:32:24.119Z,15.50
2022-09-28T09:34:41.892Z,15.61
2022-09-28T09:37:40.652Z,15.68
2022-09-28T09:40:23.353Z,15.69
2022-09-28T09:43:03.344Z,15.74
2022-09-28T09:45:45.361Z,15.78
2022-09-28T09:48:15.599Z,15.86
2022-09-28T09:50:25.967Z,15.95
2022-09-28T09:52:43.776Z,16.03
2022-09-28T09:54:54.944Z,16.11
2022-09-28T09:57:21.945Z,16.18
2022-09-28T09:59:42.295Z,16.26
2022-09-28T10:01:57.725Z,16.34
2022-09-28T10:04:34.612Z,16.45
2022-09-28T10:06:43.638Z,16.60
2022-09-28T10:08:56.254Z,16.73
2022-09-28T10:11:08.662Z,16.89
2022-09-28T10:13:14.982Z,17.01
2022-09-28T10:15:25.820Z,17.12
2022-09-28T10:17:41.544Z,17.23
2022-09-28T10:20:06.613Z,17.35
2022-09-28T10:22:20.766Z,17.46
2022-09-28T10:24:32.303Z,17.57
2022-09-28T10:26:40.624Z,17.66
2022-09-28T10:28:53.322Z,17.77
2022-09-28T10:30:58.367Z,17.89
2022-09-28T10:33:03.815Z,18.03
2022-09-28T10:35:24.628Z,18.12
2022-09-28T10:37:34.102Z,18.24
2022-09-28T10:39:52.307Z,18.36
2022-09-28T10:41:58.796Z,18.51
2022-09-28T10:44:05.512Z,18.67
2022-09-28T10:46:23.533Z,18.83
2022-09-28T10:48:33.621Z,18.98
2022-09-28T10:50:39.776Z,19.10
2022-09-28T10:52:48.660Z,19.21
2022-09-28T10:55:28.819Z,19.31
2022-09-28T10:57:37.020Z,19.41
2022-09-28T10:59:46.334Z,19.47
2022-09-28T11:02:02.003Z,19.49
2022-09-28T11:04:16.905Z,19.46
2022-09-28T11:06:31.032Z,19.44
2022-09-28T11:08:38.412Z,19.43
2022-09-28T11:10:44.537Z,19.41
2022-09-28T11:12:53.128Z,19.37
2022-09-28T11:15:02.493Z,19.36
2022-09-28T11:17:25.544Z,19.32
2022-09-28T11:19:30.519Z,19.34
2022-09-28T11:21:43.426Z,19.36
2022-09-28T11:24:02.488Z,19.41
2022-09-28T11:26:09.121Z,19.44
2022-09-28T11:28:24.901Z,19.42
2022-09-28T11:30:34.094Z,19.41
2022-09-28T11:33:05.111Z,19.41
2022-09-28T11:35:42.399Z,19.43
2022-09-28T11:37:58.145Z,19.37
2022-09-28T11:40:51.394Z,19.31
2022-09-28T11:43:09.509Z,19.30
2022-09-28T11:45:32.599Z,19.36
2022-09-28T11:47:54.010Z,19.40
2022-09-28T11:50:04.925Z,19.44
2022-09-28T11:52:17.197Z,19.52
2022-09-28T11:54:27.553Z,19.60
2022-09-28T11:56:39.845Z,19.65
2022-09-28T11:58:49.159Z,19.62
2022-09-28T12:00:59.148Z,19.58
2022-09-28T12:03:16.348Z,19.57
2022-09-28T12:05:26.938Z,19.53
2022-09-28T12:07:37.474Z,19.53
2022-09-28T12:09:48.661Z,19.56
2022-09-28T12:12:00.891Z,19.61
2022-09-28T12:14:24.589Z,19.64
2022-09-28T12:19:04.363Z,19.68
2022-09-28T12:21:33.559Z,19.58
2022-09-28T12:23:42.009Z,19.49
2022-09-28T12:25:52.067Z,19.45
2022-09-28T12:28:00.501Z,19.43
2022-09-28T12:30:13.016Z,19.38
2022-09-28T12:32:28.533Z,19.29
2022-09-28T12:34:33.592Z,19.21
2022-09-28T12:36:51.054Z,19.14
2022-09-28T12:39:24.059Z,19.11
2022-09-28T12:41:53.919Z,19.12
2022-09-28T12:44:20.780Z,19.13
2022-09-28T12:46:46.307Z,19.15
2022-09-28T12:51:47.396Z,19.36
2022-09-28T12:54:08.468Z,19.43
2022-09-28T12:56:23.416Z,19.51
2022-09-28T12:58:42.255Z,19.60
2022-09-28T13:00:56.719Z,19.66
2022-09-28T13:03:45.782Z,19.71
2022-09-28T13:06:31.399Z,19.83
2022-09-28T13:08:47.239Z,19.95
2022-09-28T13:11:07.869Z,19.98
2022-09-28T13:13:32.254Z,20.05
2022-09-28T13:15:43.927Z,20.15
2022-09-28T13:17:59.640Z,20.22
2022-09-28T13:20:14.947Z,20.29
2022-09-28T13:22:28.470Z,20.35
2022-09-28T13:24:37.461Z,20.33
2022-09-28T13:26:47.177Z,20.28
2022-09-28T13:28:54.330Z,20.24
2022-09-28T13:31:00.555Z,20.25
2022-09-28T13:33:08.262Z,20.21
2022-09-28T13:35:18.091Z,20.22
2022-09-28T13:37:25.020Z,20.23
2022-09-28T13:39:50.120Z,20.23
2022-09-28T13:41:54.916Z,20.24
2022-09-28T13:44:33.856Z,20.29
2022-09-28T13:46:46.824Z,20.32
2022-09-28T13:49:05.444Z,20.29
2022-09-28T13:51:24.259Z,20.27
2022-09-28T13:53:37.526Z,20.28
2022-09-28T13:55:56.269Z,20.26
2022-09-28T13:58:04.381Z,20.18
2022-09-28T14:00:25.908Z,20.12
2022-09-28T14:02:36.243Z,19.97
2022-09-28T14:05:00.221Z,19.91
2022-09-28T14:07:16.366Z,19.91
2022-09-28T14:09:42.141Z,19.84
2022-09-28T14:11:56.616Z,19.83
2022-09-28T14:14:05.185Z,19.87
2022-09-28T14:16:25.809Z,19.93
2022-09-28T14:18:33.300Z,19.96
2022-09-28T14:20:46.204Z,19.97
2022-09-28T14:23:09.611Z,20.03
2022-09-28T14:25:21.014Z,20.09
2022-09-28T14:28:05.994Z,20.08
2022-09-28T14:30:21.269Z,20.04
2022-09-28T14:32:34.121Z,20.00
2022-09-28T14:34:41.586Z,19.97
2022-09-28T14:36:49.714Z,19.89
2022-09-28T14:38:54.642Z,19.82
2022-09-28T14:41:06.047Z,19.75
2022-09-28T14:43:35.319Z,19.71
2022-09-28T14:45:40.159Z,19.68
2022-09-28T14:48:03.805Z,19.65
2022-09-28T14:50:22.468Z,19.63
2022-09-28T14:52:43.502Z,19.56
2022-09-28T14:54:53.178Z,19.52
2022-09-28T14:57:15.398Z,19.51
2022-09-28T14:59:22.142Z,19.47
2022-09-28T15:01:28.160Z,19.48
2022-09-28T15:03:35.514Z,19.48
2022-09-28T15:05:45.008Z,19.44
2022-09-28T15:07:51.778Z,19.37
2022-09-28T15:09:57.721Z,19.25
2022-09-28T15:12:04.889Z,19.14
2022-09-28T15:14:12.751Z,19.06
2022-09-28T15:16:22.756Z,19.01
2022-09-28T15:18:56.857Z,18.96
2022-09-28T15:21:01.873Z,18.90
2022-09-28T15:23:23.542Z,18.81
2022-09-28T15:25:30.277Z,18.74
2022-09-28T15:27:39.558Z,18.70
2022-09-28T15:29:59.085Z,18.68
2022-09-28T15:32:04.070Z,18.65
2022-09-28T15:34:26.114Z,18.62
2022-09-28T15:36:37.959Z,18.58
2022-09-28T15:38:44.683Z,18.56
2022-09-28T15:40:49.893Z,18.56
2022-09-28T15:42:59.083Z,18.56
2022-09-28T15:45:22.950Z,18.55
2022-09-28T15:47:29.605Z,18.56
2022-09-28T15:49:39.683Z,18.56
2022-09-28T15:51:52.885Z,18.57
2022-09-28T15:54:01.645Z,18.56
2022-09-28T15:56:07.919Z,18.55
2022-09-28T15:58:20.349Z,18.55
2022-09-28T16:00:30.711Z,18.53
2022-09-28T16:02:35.493Z,18.51
2022-09-28T16:04:46.159Z,18.45
2022-09-28T16:07:17.383Z,18.40
2022-09-28T16:09:36.122Z,18.33
2022-09-28T16:11:45.197Z,18.24
2022-09-28T16:13:57.866Z,18.18
2022-09-28T16:16:02.974Z,18.10
2022-09-28T16:18:19.124Z,18.03
2022-09-28T16:20:28.116Z,17.96
2022-09-28T16:22:33.430Z,17.90
2022-09-28T16:24:40.069Z,17.84
2022-09-28T16:26:45.157Z,17.79
2022-09-28T16:28:52.213Z,17.73
2022-09-28T16:31:06.488Z,17.69
2022-09-28T16:33:29.261Z,17.65
2022-09-28T16:35:49.543Z,17.63
2022-09-28T16:38:03.473Z,17.58
2022-09-28T16:40:09.856Z,17.53
2022-09-28T16:42:14.731Z,17.47
2022-09-28T16:44:24.731Z,17.40
2022-09-28T16:46:35.035Z,17.34
2022-09-28T16:48:43.219Z,17.30
2022-09-28T16:50:48.011Z,17.25
2022-09-28T16:53:00.290Z,17.19
2022-09-28T16:55:22.789Z,17.13
2022-09-28T16:57:30.965Z,17.07
2022-09-28T16:59:36.131Z,17.01
2022-09-28T17:01:40.983Z,16.95
2022-09-28T17:03:45.768Z,16.89
2022-09-28T17:05:50.980Z,16.83
2022-09-28T17:08:03.205Z,16.81
2022-09-28T17:10:17.469Z,16.76
2022-09-28T17:12:23.874Z,16.73
2022-09-28T17:14:28.603Z,16.68
2022-09-28T17:18:58.963Z,16.58
2022-09-28T17:21:05.407Z,16.54
2022-09-28T17:23:13.227Z,16.50
2022-09-28T17:25:18.208Z,16.44
2022-09-28T17:27:23.056Z,16.42
2022-09-28T17:29:28.239Z,16.39
2022-09-28T17:31:33.126Z,16.37
2022-09-28T17:33:38.544Z,16.36
2022-09-28T17:35:44.452Z,16.35
2022-09-28T17:37:49.327Z,16.32
2022-09-28T17:39:54.126Z,16.28
2022-09-28T17:41:58.892Z,16.25
2022-09-28T17:44:03.912Z,16.23
2022-09-28T17:46:17.589Z,16.23
2022-09-28T17:48:22.640Z,16.21
2022-09-28T17:50:29.840Z,16.20
2022-09-28T17:52:34.524Z,16.17
2022-09-28T17:54:39.403Z,16.13
2022-09-28T17:56:44.278Z,16.11
2022-09-28T17:58:49.128Z,16.08
2022-09-28T18:00:53.827Z,16.06
2022-09-28T18:02:59.565Z,16.04
2022-09-28T18:05:04.554Z,16.00
2022-09-28T18:07:10.083Z,15.98
2022-09-28T18:09:15.963Z,15.95
2022-09-28T18:11:20.977Z,15.93
2022-09-28T18:13:25.802Z,15.92
2022-09-28T18:15:30.634Z,15.89
2022-09-28T18:17:35.519Z,15.88
2022-09-28T18:19:40.253Z,15.87
2022-09-28T18:21:45.030Z,15.84
2022-09-28T18:23:49.933Z,15.83
2022-09-28T18:25:55.726Z,15.80
2022-09-28T18:28:00.972Z,15.76
2022-09-28T18:30:07.469Z,15.71
2022-09-28T18:32:12.254Z,15.67
2022-09-28T18:34:17.276Z,15.65
2022-09-28T18:36:27.456Z,15.64
2022-09-28T18:38:34.568Z,15.64
2022-09-28T18:40:39.314Z,15.63
2022-09-28T18:42:44.107Z,15.61
2022-09-28T18:44:49.164Z,15.57
2022-09-28T18:46:54.285Z,15.57
2022-09-28T18:49:02.261Z,15.55
2022-09-28T18:51:09.807Z,15.55
2022-09-28T18:53:14.956Z,15.56
2022-09-28T18:55:21.110Z,15.58
2022-09-28T18:57:26.415Z,15.57
2022-09-28T18:59:31.431Z,15.57
2022-09-28T19:01:38.094Z,15.57
2022-09-28T19:03:43.458Z,15.59
2022-09-28T19:05:48.242Z,15.57
2022-09-28T19:07:53.103Z,15.55
2022-09-28T19:09:59.330Z,15.51
2022-09-28T19:12:04.336Z,15.45
2022-09-28T19:14:10.875Z,15.42
2022-09-28T19:16:18.513Z,15.39
2022-09-28T19:18:23.782Z,15.36
2022-09-28T19:20:28.999Z,15.34
2022-09-28T19:22:34.664Z,15.31
2022-09-28T19:24:41.098Z,15.29
2022-09-28T19:26:47.069Z,15.25
2022-09-28T19:28:52.612Z,15.20
2022-09-28T19:33:08.135Z,15.11
2022-09-28T19:35:13.326Z,15.07
2022-09-28T19:37:18.706Z,15.04
2022-09-28T19:39:23.534Z,15.02
2022-09-28T19:41:29.862Z,15.00
2022-09-28T19:43:35.140Z,14.97
2022-09-28T19:45:40.579Z,14.93
2022-09-28T19:47:48.638Z,14.88
2022-09-28T19:49:53.972Z,14.83
2022-09-28T19:52:12.611Z,14.80
2022-09-28T19:54:19.517Z,14.76
2022-09-28T19:56:24.857Z,14.72
2022-09-28T19:58:34.261Z,14.68
2022-09-28T20:00:40.546Z,14.66
2022-09-28T20:02:45.641Z,14.64
2022-09-28T20:04:50.989Z,14.62
2022-09-28T20:06:56.108Z,14.59
2022-09-28T20:09:01.230Z,14.56
2022-09-28T20:11:07.137Z,14.53
2022-09-28T20:13:12.152Z,14.50
2022-09-28T20:15:17.577Z,14.48
2022-09-28T20:17:22.566Z,14.45
2022-09-28T20:19:27.501Z,14.42
2022-09-28T20:21:32.611Z,14.37
2022-09-28T20:23:37.483Z,14.34
2022-09-28T20:25:42.290Z,14.32
2022-09-28T20:27:47.200Z,14.28
2022-09-28T20:29:52.046Z,14.25
2022-09-28T20:31:56.925Z,14.23
2022-09-28T20:34:01.857Z,14.21
2022-09-28T20:36:08.707Z,14.17
2022-09-28T20:38:13.588Z,14.14
2022-09-28T20:40:18.883Z,14.12
2022-09-28T20:42:23.891Z,14.08
2022-09-28T20:44:28.867Z,14.05
2022-09-28T20:46:33.829Z,14.02
2022-09-28T20:48:38.948Z,14.00
2022-09-28T20:50:43.969Z,13.97
2022-09-28T20:52:48.712Z,13.97
2022-09-28T20:54:53.429Z,13.95
2022-09-28T20:56:58.153Z,13.95
2022-09-28T20:59:03.341Z,13.95
2022-09-28T21:01:13.971Z,13.94
2022-09-28T21:03:18.628Z,13.94
2022-09-28T21:05:23.464Z,13.92
2022-09-28T21:07:28.276Z,13.90
2022-09-28T21:09:33.082Z,13.87
2022-09-28T21:11:38.284Z,13.84
2022-09-28T21:13:43.839Z,13.82
2022-09-28T21:15:48.881Z,13.80
2022-09-28T21:17:53.733Z,13.79
2022-09-28T21:19:58.479Z,13.77
2022-09-28T21:22:03.457Z,13.74
2022-09-28T21:24:08.819Z,13.69
2022-09-28T21:26:15.583Z,13.66
2022-09-28T21:28:20.265Z,13.65
2022-09-28T21:30:25.017Z,13.63
2022-09-28T21:32:31.070Z,13.61
2022-09-28T21:34:35.791Z,13.59
2022-09-28T21:36:40.537Z,13.58
2022-09-28T21:38:45.548Z,13.58
2022-09-28T21:40:56.018Z,13.56
2022-09-28T21:43:00.882Z,13.57
2022-09-28T21:45:07.104Z,13.56
2022-09-28T21:47:11.888Z,13.55
2022-09-28T21:49:16.733Z,13.56
2022-09-28T21:51:21.731Z,13.55
2022-09-28T21:53:28.614Z,13.53
2022-09-28T21:55:33.338Z,13.53
2022-09-28T21:57:38.028Z,13.52
2022-09-28T21:59:42.740Z,13.51
2022-09-28T22:01:47.513Z,13.51
2022-09-28T22:03:55.392Z,13.53
2022-09-28T22:06:00.254Z,13.51
2022-09-28T22:08:05.142Z,13.49
2022-09-28T22:10:14.216Z,13.48
2022-09-28T22:12:19.010Z,13.43
2022-09-28T22:14:23.762Z,13.40
2022-09-28T22:16:30.834Z,13.37
2022-09-28T22:18:36.005Z,13.36
2022-09-28T22:20:41.946Z,13.33
2022-09-28T22:22:51.621Z,13.30
2022-09-28T22:24:56.307Z,13.28
2022-09-28T22:27:01.658Z,13.29
2022-09-28T22:29:08.169Z,13.29
2022-09-28T22:31:12.923Z,13.30
2022-09-28T22:33:17.748Z,13.30
2022-09-28T22:35:22.492Z,13.31
2022-09-28T22:37:27.236Z,13.30
2022-09-28T22:39:36.710Z,13.30
2022-09-28T22:41:42.422Z,13.30
2022-09-28T22:43:47.491Z,13.28
2022-09-28T22:46:00.170Z,13.28
2022-09-28T22:48:05.269Z,13.27
2022-09-28T22:50:10.610Z,13.23
2022-09-28T22:52:15.401Z,13.19
2022-09-28T22:54:20.396Z,13.15
2022-09-28T22:56:26.048Z,13.10
2022-09-28T22:58:30.989Z,13.06
2022-09-28T23:00:35.749Z,13.02
2022-09-28T23:02:40.637Z,13.01
2022-09-28T23:04:48.256Z,13.00
2022-09-28T23:06:52.958Z,12.99
2022-09-28T23:08:58.067Z,12.98
2022-09-28T23:11:02.886Z,12.97
2022-09-28T23:13:07.605Z,12.96
2022-09-28T23:15:12.851Z,12.96
2022-09-28T23:17:17.599Z,12.97
2022-09-28T23:19:22.294Z,12.94
2022-09-28T23:21:28.955Z,12.90
2022-09-28T23:23:34.109Z,12.84
2022-09-28T23:25:38.849Z,12.77
2022-09-28T23:27:46.401Z,12.70
2022-09-28T23:29:51.132Z,12.62
2022-09-28T23:31:55.812Z,12.53
2022-09-28T23:34:04.432Z,12.46
2022-09-28T23:36:10.636Z,12.41
2022-09-28T23:38:16.795Z,12.39
2022-09-28T23:40:21.597Z,12.36
2022-09-28T23:42:26.295Z,12.33
2022-09-28T23:44:31.120Z,12.31
2022-09-28T23:46:35.911Z,12.30
2022-09-28T23:48:40.712Z,12.27
2022-09-28T23:50:45.939Z,12.25
2022-09-28T23:52:50.965Z,12.23
2022-09-28T23:54:55.617Z,12.19
2022-09-28T23:57:00.325Z,12.16
2022-09-28T23:59:05.103Z,12.13
